Time;durP1;ratioP1;P1;durP2;ratioP2;P2;SDS_P1;SDS_P2;PMS_P1;PMS_P2;Temp;Humidity;BMP_temperature;BMP_pressure;BME280_temperature;BME280_humidity;BME280_pressure;Samples;Min_cycle;Max_cycle;Signal;HPM_P1;HPM_P2
2022/10/07 00:01:04;;;;;;;10.60;7.27;;;;;;;5.84;82.10;102078.77;1729404;81;21417;-75
2022/10/07 00:03:34;;;;;;;10.43;7.30;;;;;;;5.80;82.00;102081.78;1723679;81;21536;-75
2022/10/07 00:06:12;;;;;;;12.33;6.93;;;;;;;5.76;81.96;102076.98;1745533;81;21380;-75
2022/10/07 00:08:46;;;;;;;12.10;7.17;;;;;;;5.73;81.94;102076.93;1753556;81;21500;-74
2022/10/07 00:11:26;;;;;;;13.30;7.37;;;;;;;5.67;81.87;102078.61;1753983;81;21520;-75
2022/10/07 00:13:57;;;;;;;10.68;7.03;;;;;;;5.67;82.12;102073.41;1753743;81;21011;-74
2022/10/07 00:16:29;;;;;;;14.97;7.93;;;;;;;5.61;81.99;102075.52;1753916;81;22062;-75
2022/10/07 00:18:59;;;;;;;14.30;7.90;;;;;;;5.58;82.12;102073.76;1752952;81;21143;-75
2022/10/07 00:21:29;;;;;;;13.20;7.37;;;;;;;5.59;82.23;102073.33;1752348;81;25963;-75
2022/10/07 00:23:57;;;;;;;14.43;7.45;;;;;;;5.55;82.19;102083.27;1750788;82;21110;-75
2022/10/07 00:26:27;;;;;;;16.07;7.50;;;;;;;5.49;82.18;102076.27;1750398;81;20874;-75
2022/10/07 00:28:54;;;;;;;;;;;;;;;5.51;82.37;102081.04;1753313;81;21248;-75
2022/10/07 00:31:25;;;;;;;13.57;7.60;;;;;;;5.46;82.44;102076.64;1750546;82;21292;-74
2022/10/07 00:33:54;;;;;;;13.53;7.70;;;;;;;5.42;82.33;102075.75;1748304;81;21568;-74
2022/10/07 00:36:28;;;;;;;13.80;8.40;;;;;;;5.38;82.25;102071.39;1697309;82;21011;-75
2022/10/07 00:38:59;;;;;;;15.03;8.73;;;;;;;5.40;83.30;102068.35;1735627;82;21708;-74
2022/10/07 00:41:31;;;;;;;13.40;8.80;;;;;;;5.43;83.14;102071.41;1735481;82;21592;-74
2022/10/07 00:44:01;;;;;;;12.67;8.17;;;;;;;5.44;82.98;102074.48;1735315;82;21917;-75
2022/10/07 00:46:34;;;;;;;14.90;8.08;;;;;;;5.44;83.04;102065.38;1731176;82;22082;-75
2022/10/07 00:49:07;;;;;;;12.73;7.73;;;;;;;5.43;83.07;102064.52;1725536;82;21008;-75
2022/10/07 00:51:35;;;;;;;14.10;9.17;;;;;;;5.41;82.81;102069.25;1712236;81;20911;-74
2022/10/07 00:54:06;;;;;;;15.83;8.90;;;;;;;5.41;83.47;102065.34;1729115;81;22202;-74
2022/10/07 00:56:34;;;;;;;15.50;9.43;;;;;;;5.45;83.31;102061.48;1731193;81;22269;-74
2022/10/07 00:59:01;;;;;;;15.80;8.97;;;;;;;5.47;83.23;102055.88;1738528;81;21027;-75
2022/10/07 01:01:30;;;;;;;15.00;9.20;;;;;;;5.47;83.15;102052.41;1719656;82;21044;-74
2022/10/07 01:03:57;;;;;;;15.93;8.73;;;;;;;5.46;83.47;102048.94;1703995;82;21539;-74
2022/10/07 01:06:24;;;;;;;13.67;8.77;;;;;;;5.46;83.16;102041.53;1736990;81;20988;-75
2022/10/07 01:08:53;;;;;;;15.40;8.90;;;;;;;5.45;83.30;102040.67;1736685;82;21375;-75
2022/10/07 01:11:40;;;;;;;14.87;9.63;;;;;;;5.44;83.14;102049.34;1752833;81;21019;-74
2022/10/07 01:14:33;;;;;;;16.27;9.13;;;;;;;5.46;83.39;102043.73;1726382;82;21003;-75
2022/10/07 01:17:12;;;;;;;14.37;9.90;;;;;;;5.42;83.14;102038.48;1709096;83;21074;-74
2022/10/07 01:19:56;;;;;;;15.67;9.73;;;;;;;5.45;83.89;102038.07;1751582;81;21039;-74
2022/10/07 01:22:53;;;;;;;17.20;11.53;;;;;;;5.47;83.94;102030.30;1732129;81;21129;-74
2022/10/07 01:26:01;;;;;;;20.40;12.70;;;;;;;5.49;84.39;102032.50;1735642;81;21000;-74
2022/10/07 01:28:35;;;;;;;20.30;12.37;;;;;;;5.71;86.08;102029.23;1751812;81;21016;-75
2022/10/07 01:31:05;;;;;;;20.33;13.57;;;;;;;5.88;86.31;102028.52;1751476;81;21549;-75
2022/10/07 01:33:34;;;;;;;21.15;13.68;;;;;;;5.94;86.23;102025.55;1741091;81;21007;-75
2022/10/07 01:36:09;;;;;;;18.90;13.70;;;;;;;5.99;85.97;102027.77;1743366;81;21981;-74
2022/10/07 01:38:40;;;;;;;19.87;13.30;;;;;;;6.03;85.98;102025.62;1706774;81;21090;-75
2022/10/07 01:41:13;;;;;;;19.67;13.67;;;;;;;6.05;85.32;102024.78;1707132;81;21035;-74
2022/10/07 01:43:42;;;;;;;21.60;12.03;;;;;;;6.05;85.29;102023.48;1751941;81;21059;-74
2022/10/07 01:46:14;;;;;;;17.20;11.77;;;;;;;5.98;84.55;102020.80;1733241;81;21531;-75
2022/10/07 01:48:41;;;;;;;17.80;11.73;;;;;;;5.93;84.44;102023.83;1732574;81;21068;-74
2022/10/07 01:51:08;;;;;;;16.23;11.63;;;;;;;5.90;84.42;102012.46;1728194;82;21020;-75
2022/10/07 01:53:48;;;;;;;19.13;11.67;;;;;;;5.86;84.58;102007.67;1751798;81;21000;-75
2022/10/07 01:56:36;;;;;;;16.15;11.12;;;;;;;5.84;84.38;102014.59;1751741;81;21007;-75
2022/10/07 01:59:28;;;;;;;19.83;11.87;;;;;;;5.89;84.80;102014.63;1693975;81;21122;-75
2022/10/07 02:02:13;;;;;;;19.33;10.53;;;;;;;5.82;84.60;102007.22;1747298;81;21993;-75
2022/10/07 02:05:02;;;;;;;21.90;10.67;;;;;;;5.75;84.04;102002.81;1653981;86;21098;-75
2022/10/07 02:08:01;;;;;;;15.33;10.47;;;;;;;5.76;84.79;102006.74;1742053;81;21019;-75
2022/10/07 02:10:33;;;;;;;16.07;10.30;;;;;;;5.72;84.26;102003.66;1727802;81;20918;-74
2022/10/07 02:13:39;;;;;;;13.70;10.23;;;;;;;5.65;84.03;101994.04;1734474;81;21027;-74
2022/10/07 02:16:31;;;;;;;19.20;10.97;;;;;;;5.59;84.08;101990.09;1727686;81;21128;-74
2022/10/07 02:19:04;;;;;;;15.05;9.80;;;;;;;5.52;83.90;101990.47;1743452;81;21027;-74
2022/10/07 02:21:35;;;;;;;16.77;10.47;;;;;;;5.47;83.98;101983.05;1724520;81;21071;-74
2022/10/07 02:24:04;;;;;;;17.90;12.13;;;;;;;5.44;84.10;101992.56;1740581;81;20996;-75
2022/10/07 02:26:33;;;;;;;17.53;11.47;;;;;;;5.50;85.22;101992.18;1708387;81;21039;-75
2022/10/07 02:29:04;;;;;;;17.50;12.03;;;;;;;5.48;84.82;101988.69;1752291;81;21177;-74
2022/10/07 02:31:35;;;;;;;19.97;13.00;;;;;;;5.56;85.81;101984.86;1707181;82;21999;-74
2022/10/07 02:34:05;;;;;;;20.10;12.80;;;;;;;5.57;85.28;101982.69;1716993;81;21007;-75
2022/10/07 02:36:37;;;;;;;19.07;12.47;;;;;;;5.58;85.48;101983.16;1709691;82;26916;-74
2022/10/07 02:39:07;;;;;;;16.77;12.03;;;;;;;5.63;86.01;101978.87;1733680;81;21034;-75
2022/10/07 02:41:57;;;;;;;18.63;11.63;;;;;;;5.67;85.71;101974.12;1748486;81;21109;-75
2022/10/07 02:44:50;;;;;;;16.50;10.53;;;;;;;5.63;84.93;101969.77;1750996;81;21015;-75
2022/10/07 02:47:40;;;;;;;18.43;11.57;;;;;;;5.59;84.90;101971.45;1741743;81;21616;-75
2022/10/07 02:50:13;;;;;;;19.30;11.35;;;;;;;5.56;84.77;101971.42;1739807;81;20992;-73
2022/10/07 02:52:42;;;;;;;17.07;11.20;;;;;;;5.53;85.12;101962.30;1756784;81;21066;-73
2022/10/07 02:55:14;;;;;;;17.03;11.37;;;;;;;5.56;84.98;101965.36;1735283;81;21189;-74
2022/10/07 02:57:46;;;;;;;15.43;12.33;;;;;;;5.48;84.68;101960.08;1756551;81;21031;-73
2022/10/07 03:00:16;;;;;;;20.03;10.97;;;;;;;5.50;85.67;101962.27;1756316;81;21023;-73
2022/10/07 03:02:52;;;;;;;15.80;11.27;;;;;;;5.62;86.39;101958.03;1728999;81;21012;-73
2022/10/07 03:05:23;;;;;;;17.27;11.83;;;;;;;5.62;85.50;101964.53;1756507;81;21265;-73
2022/10/07 03:07:58;;;;;;;14.23;10.30;;;;;;;5.67;86.28;101959.81;1731305;81;21109;-72
2022/10/07 03:10:26;;;;;;;17.53;11.47;;;;;;;5.68;85.65;101953.77;1755904;81;21027;-73
2022/10/07 03:12:53;;;;;;;14.97;11.40;;;;;;;5.71;86.13;101947.29;1756646;81;21485;-73
2022/10/07 03:15:21;;;;;;;15.17;11.07;;;;;;;5.70;86.17;101947.27;1702775;81;21067;-73
2022/10/07 03:17:49;;;;;;;14.73;10.90;;;;;;;5.77;86.67;101952.53;1756688;81;21011;-73
2022/10/07 03:20:16;;;;;;;16.50;12.20;;;;;;;5.84;86.56;101951.27;1756563;81;21118;-73
2022/10/07 03:22:44;;;;;;;17.77;12.10;;;;;;;5.85;86.74;101952.59;1738169;81;20991;-74
2022/10/07 03:25:13;;;;;;;14.20;10.10;;;;;;;5.92;87.05;101947.86;1756368;81;20980;-73
2022/10/07 03:27:42;;;;;;;15.57;10.30;;;;;;;5.92;86.18;101946.99;1756408;81;21003;-74
2022/10/07 03:30:11;;;;;;;13.10;9.23;;;;;;;5.90;86.14;101948.70;1716712;81;21101;-74
2022/10/07 03:32:40;;;;;;;17.23;9.80;;;;;;;5.82;85.51;101948.67;1685810;82;21155;-74
2022/10/07 03:35:09;;;;;;;15.35;9.53;;;;;;;5.80;85.59;101941.28;1700242;82;21015;-74
2022/10/07 03:37:37;;;;;;;14.47;9.60;;;;;;;5.79;85.94;101943.02;1680557;81;21058;-74
2022/10/07 03:40:06;;;;;;;15.77;11.13;;;;;;;5.78;86.02;101939.09;1675164;82;21086;-74
2022/10/07 03:42:33;;;;;;;16.37;11.30;;;;;;;5.83;86.62;101936.09;1721886;81;21090;-74
2022/10/07 03:45:00;;;;;;;17.73;11.97;;;;;;;5.87;86.87;101935.67;1756525;81;21141;-74
2022/10/07 03:47:27;;;;;;;16.73;12.00;;;;;;;5.92;86.86;101934.84;1703418;81;21103;-74
2022/10/07 03:49:56;;;;;;;14.97;10.80;;;;;;;5.96;87.07;101941.00;1731683;82;21533;-74
2022/10/07 03:52:24;;;;;;;15.93;10.40;;;;;;;5.96;86.68;101939.26;1728256;82;21053;-74
2022/10/07 03:54:55;;;;;;;17.30;10.93;;;;;;;5.91;86.01;101931.81;1677707;82;21119;-73
2022/10/07 04:00:08;;;;;;;17.27;10.97;;;;;;;5.94;86.47;101933.60;1711583;82;21468;-73
2022/10/07 04:02:36;;;;;;;15.58;10.95;;;;;;;5.94;86.85;101925.80;1728377;81;21027;-73
2022/10/07 04:05:05;;;;;;;16.13;10.40;;;;;;;5.91;86.11;101925.30;1756238;81;21066;-74
2022/10/07 04:07:32;;;;;;;17.47;11.43;;;;;;;5.86;86.42;101917.89;1756637;81;21031;-73
2022/10/07 04:10:00;;;;;;;16.43;11.30;;;;;;;5.89;86.84;101919.65;1702672;81;21104;-74
2022/10/07 04:12:31;;;;;;;14.00;9.80;;;;;;;5.90;86.79;101911.83;1719852;81;21552;-74
2022/10/07 04:14:56;;;;;;;15.43;9.80;;;;;;;5.86;86.20;101911.39;1680408;82;20999;-74
2022/10/07 04:17:23;;;;;;;14.80;9.70;;;;;;;5.83;86.44;101907.47;1719491;82;21517;-74
2022/10/07 04:19:51;;;;;;;15.13;9.13;;;;;;;5.83;86.16;101902.70;1716509;81;21026;-74
2022/10/07 04:22:18;;;;;;;12.10;8.63;;;;;;;5.78;85.84;101905.27;1702893;81;21098;-72
2022/10/07 04:25:32;;;;;;;13.93;8.97;;;;;;;5.66;85.26;101902.16;1746451;81;21035;-73
2022/10/07 04:27:14;;;;;;;11.57;8.77;;;;;;;5.62;85.55;101899.50;1746488;81;21012;-73
2022/10/07 04:29:41;;;;;;;13.17;8.40;;;;;;;5.55;84.97;101902.50;1751242;81;21023;-73
2022/10/07 04:32:09;;;;;;;12.93;8.60;;;;;;;5.48;85.30;101900.70;1753736;81;21299;-73
2022/10/07 04:34:35;;;;;;;10.57;7.83;;;;;;;5.41;85.22;101895.89;1751942;81;21954;-73
2022/10/07 04:37:04;;;;;;;16.97;8.90;;;;;;;5.32;84.76;101896.69;1751808;81;21035;-73
2022/10/07 04:39:31;;;;;;;11.17;7.83;;;;;;;5.23;84.83;101897.02;1728251;82;20991;-72
2022/10/07 04:41:59;;;;;;;11.20;7.67;;;;;;;5.19;84.98;101896.13;1732561;82;21050;-73
2022/10/07 04:44:28;;;;;;;10.77;7.67;;;;;;;5.12;84.79;101899.09;1737330;82;21101;-74
2022/10/07 04:46:59;;;;;;;11.27;8.23;;;;;;;5.07;84.97;101895.59;1735028;82;21187;-74
2022/10/07 04:49:27;;;;;;;14.80;8.30;;;;;;;5.01;85.06;101899.41;1738929;82;21512;-74
2022/10/07 04:51:55;;;;;;;12.73;8.37;;;;;;;4.97;84.88;101905.45;1747322;81;21035;-74
2022/10/07 04:54:24;;;;;;;11.50;8.63;;;;;;;4.91;85.04;101903.66;1748087;81;21015;-74
2022/10/07 04:56:53;;;;;;;15.32;8.65;;;;;;;4.83;84.67;101904.01;1747308;82;20995;-74
2022/10/07 04:59:22;;;;;;;11.97;8.10;;;;;;;4.81;85.01;101898.34;1747392;82;21127;-74
2022/10/07 05:01:49;;;;;;;13.30;8.50;;;;;;;4.74;84.89;101900.02;1745907;81;21016;-74
2022/10/07 05:04:16;;;;;;;12.33;8.33;;;;;;;4.73;84.99;101902.16;1748757;82;21294;-73
2022/10/07 05:06:44;;;;;;;14.63;10.00;;;;;;;4.69;85.09;101896.06;1748123;82;21076;-74
2022/10/07 05:09:12;;;;;;;15.97;9.17;;;;;;;4.66;85.34;101896.03;1749917;82;21078;-74
2022/10/07 05:11:40;;;;;;;15.30;10.60;;;;;;;4.69;85.74;101896.50;1749693;81;21135;-74
2022/10/07 05:14:09;;;;;;;13.40;9.43;;;;;;;4.73;86.12;101892.20;1735607;81;21082;-74
2022/10/07 05:16:37;;;;;;;13.90;9.77;;;;;;;4.70;86.22;101893.89;1740347;82;21448;-74
2022/10/07 05:19:04;;;;;;;15.00;9.97;;;;;;;4.68;85.73;101886.54;1746947;81;21046;-74
2022/10/07 05:21:32;;;;;;;19.20;10.00;;;;;;;4.68;85.97;101892.13;1745430;82;21007;-73
2022/10/07 05:23:59;;;;;;;13.33;10.03;;;;;;;4.75;86.41;101884.00;1714599;81;21116;-72
2022/10/07 05:26:28;;;;;;;14.63;10.23;;;;;;;4.77;86.12;101882.30;1708529;81;21058;-72
2022/10/07 05:28:57;;;;;;;16.33;9.97;;;;;;;4.77;86.27;101884.90;1711941;81;21134;-72
2022/10/07 05:31:26;;;;;;;13.90;9.17;;;;;;;4.82;86.46;101876.30;1705138;81;21071;-73
2022/10/07 05:33:55;;;;;;;19.60;10.30;;;;;;;4.81;86.30;101882.77;1710531;81;21460;-75
2022/10/07 05:36:23;;;;;;;16.33;11.37;;;;;;;4.84;86.70;101884.95;1710990;81;21505;-74
2022/10/07 05:38:58;;;;;;;16.47;11.00;;;;;;;4.88;87.14;101882.84;1710597;81;21011;-71
2022/10/07 05:41:27;;;;;;;15.77;10.37;;;;;;;4.98;87.23;101877.30;1715973;81;21094;-72
2022/10/07 05:43:55;;;;;;;16.53;11.13;;;;;;;4.99;86.83;101876.46;1707358;81;21584;-72
2022/10/07 05:46:23;;;;;;;15.97;11.13;;;;;;;5.06;87.41;101876.08;1716852;81;22346;-72
2022/10/07 05:48:53;;;;;;;15.00;10.73;;;;;;;5.11;87.16;101882.19;1701464;82;21967;-72
2022/10/07 05:51:24;;;;;;;16.50;10.90;;;;;;;5.16;87.48;101874.45;1701092;83;21083;-72
2022/10/07 05:53:55;;;;;;;17.95;11.83;;;;;;;5.21;87.62;101872.73;1701862;82;21099;-72
2022/10/07 05:56:24;;;;;;;18.67;12.87;;;;;;;5.32;88.27;101871.98;1700734;82;21039;-72
2022/10/07 05:58:52;;;;;;;20.47;12.80;;;;;;;5.47;88.80;101869.06;1698502;82;21050;-72
2022/10/07 06:01:21;;;;;;;18.20;13.43;;;;;;;5.57;88.84;101861.75;1704804;82;22046;-74
2022/10/07 06:03:54;;;;;;;18.57;12.60;;;;;;;5.71;89.18;101863.14;1717026;82;21651;-73
2022/10/07 06:06:24;;;;;;;19.57;14.27;;;;;;;5.81;89.06;101868.41;1714811;82;21035;-73
2022/10/07 06:08:53;;;;;;;21.07;14.00;;;;;;;5.91;89.18;101862.84;1701080;82;21058;-71
2022/10/07 06:14:06;;;;;;;35.10;22.43;;;;;;;6.11;89.30;101866.02;1717549;82;21093;-73
2022/10/07 06:16:33;;;;;;;64.40;37.57;;;;;;;6.21;89.32;101867.81;1708549;82;21000;-71
2022/10/07 06:19:01;;;;;;;76.83;42.77;;;;;;;6.28;89.26;101860.45;1722983;82;21523;-74
2022/10/07 06:21:30;;;;;;;93.97;52.87;;;;;;;6.34;89.09;101867.41;1709956;82;21059;-71
2022/10/07 06:23:59;;;;;;;105.07;58.48;;;;;;;6.41;89.19;101874.40;1702404;81;21711;-70
2022/10/07 06:26:28;;;;;;;93.53;53.17;;;;;;;6.48;89.00;101870.94;1709850;81;21802;-72
2022/10/07 06:28:55;;;;;;;105.07;60.93;;;;;;;6.54;89.23;101863.16;1712337;81;21039;-73
2022/10/07 06:31:24;;;;;;;85.53;52.57;;;;;;;6.62;89.21;101860.55;1706600;81;20973;-72
2022/10/07 06:33:53;;;;;;;114.55;70.75;;;;;;;6.72;89.37;101861.47;1710235;81;21032;-75
2022/10/07 06:36:22;;;;;;;114.83;73.73;;;;;;;6.78;89.36;101854.95;1718838;81;21473;-73
2022/10/07 06:38:53;;;;;;;105.37;69.07;;;;;;;6.87;89.36;101849.75;1714914;81;21760;-75
2022/10/07 06:41:22;;;;;;;66.43;44.63;;;;;;;6.96;89.55;101855.00;1717969;81;21011;-73
2022/10/07 06:43:59;;;;;;;45.87;30.17;;;;;;;7.04;89.53;101851.06;1714665;81;21026;-75
2022/10/07 06:46:26;;;;;;;35.93;23.77;;;;;;;7.10;89.44;101855.88;1717011;81;21023;-75
2022/10/07 06:48:54;;;;;;;38.83;25.23;;;;;;;7.16;89.57;101856.31;1715136;81;21028;-75
2022/10/07 06:51:23;;;;;;;31.47;20.47;;;;;;;7.22;89.44;101853.70;1714674;81;21138;-74
2022/10/07 06:53:53;;;;;;;30.20;17.70;;;;;;;7.30;89.47;101856.31;1717832;82;21058;-75
2022/10/07 06:56:22;;;;;;;31.87;21.97;;;;;;;7.38;89.67;101853.27;1714470;81;21574;-75
2022/10/07 06:58:50;;;;;;;31.50;20.70;;;;;;;7.45;89.61;101854.12;1721440;82;21018;-75
2022/10/07 07:01:18;;;;;;;33.10;20.63;;;;;;;7.53;89.75;101850.63;1713020;81;21045;-74
2022/10/07 07:03:46;;;;;;;26.30;19.93;;;;;;;7.60;89.79;101851.06;1719119;81;21108;-76
2022/10/07 07:06:14;;;;;;;24.77;17.63;;;;;;;7.68;89.72;101852.36;1712101;81;20892;-75
2022/10/07 07:08:43;;;;;;;25.33;17.30;;;;;;;7.78;89.99;101847.98;1719764;81;21507;-75
2022/10/07 07:14:02;;;;;;;20.10;13.07;;;;;;;7.99;90.12;101847.06;1720898;81;21528;-75
2022/10/07 07:16:31;;;;;;;26.53;14.33;;;;;;;8.08;90.13;101844.85;1719213;81;21109;-75
2022/10/07 07:19:02;;;;;;;20.27;13.63;;;;;;;8.14;89.96;101841.77;1721344;82;21079;-74
2022/10/07 07:21:30;;;;;;;21.43;13.73;;;;;;;8.21;89.90;101843.94;1715494;81;21036;-75
2022/10/07 07:23:58;;;;;;;24.33;12.10;;;;;;;8.27;89.72;101831.70;1754532;81;21038;-75
2022/10/07 07:26:27;;;;;;;17.97;12.93;;;;;;;8.34;89.75;101831.67;1711569;81;21030;-75
2022/10/07 07:29:01;;;;;;;18.30;12.37;;;;;;;8.42;89.80;101833.39;1712260;82;21158;-73
2022/10/07 07:31:33;;;;;;;17.13;11.47;;;;;;;8.52;89.93;101834.67;1708968;81;21052;-75
2022/10/07 07:34:06;;;;;;;17.57;9.57;;;;;;;8.60;90.07;101818.06;1737687;81;21023;-74
2022/10/07 07:36:35;;;;;;;15.97;10.20;;;;;;;8.73;90.17;101818.88;1694148;82;21032;-75
2022/10/07 07:39:09;;;;;;;17.00;10.13;;;;;;;8.88;90.36;101823.97;1727872;82;21024;-75
2022/10/07 07:41:41;;;;;;;17.83;11.00;;;;;;;8.99;90.40;101814.75;1695728;82;21136;-76
2022/10/07 07:44:11;;;;;;;15.17;10.10;;;;;;;9.12;90.65;101820.76;1731808;81;20968;-75
2022/10/07 07:46:43;;;;;;;13.50;10.33;;;;;;;9.27;90.68;101821.92;1756581;81;21362;-76
2022/10/07 07:49:12;;;;;;;15.33;10.07;;;;;;;9.39;90.51;101811.77;1756326;81;21023;-74
2022/10/07 07:51:41;;;;;;;15.65;9.65;;;;;;;9.53;90.46;101807.30;1738669;81;21273;-75
2022/10/07 07:54:12;;;;;;;14.35;8.90;;;;;;;9.67;90.23;101802.33;1756518;81;21157;-74
2022/10/07 07:56:41;;;;;;;13.80;9.67;;;;;;;9.82;90.14;101803.48;1750613;81;21014;-76
2022/10/07 07:59:10;;;;;;;12.70;9.10;;;;;;;9.94;89.90;101795.92;1744906;81;21067;-76
2022/10/07 08:01:38;;;;;;;11.37;8.83;;;;;;;10.07;89.53;101792.27;1752089;81;21074;-76
2022/10/07 08:04:05;;;;;;;15.23;9.87;;;;;;;10.19;89.15;101784.69;1730638;81;21501;-76
2022/10/07 08:06:33;;;;;;;14.63;8.87;;;;;;;10.32;89.26;101785.43;1685595;82;21125;-75
2022/10/07 08:09:03;;;;;;;16.50;8.77;;;;;;;10.45;89.10;101783.92;1701791;81;21007;-75
2022/10/07 08:11:31;;;;;;;13.10;7.93;;;;;;;10.60;88.95;101778.03;1690944;82;21531;-75
2022/10/07 08:14:02;;;;;;;13.33;7.87;;;;;;;10.75;88.86;101780.40;1708464;82;21081;-76
2022/10/07 08:16:31;;;;;;;12.65;8.30;;;;;;;10.90;88.60;101780.17;1720982;81;21454;-76
2022/10/07 08:18:59;;;;;;;12.13;7.93;;;;;;;11.06;88.70;101780.79;1690587;82;22035;-76
2022/10/07 08:21:34;;;;;;;10.67;7.33;;;;;;;11.26;88.73;101772.56;1704657;82;21026;-76
2022/10/07 08:24:04;;;;;;;10.50;6.63;;;;;;;11.48;88.50;101779.59;1720630;81;21003;-76
2022/10/07 08:26:36;;;;;;;16.33;7.30;;;;;;;11.67;88.08;101772.23;1707574;84;21078;-75
2022/10/07 08:29:04;;;;;;;10.68;6.72;;;;;;;11.87;87.97;101763.98;1709887;81;21064;-75
2022/10/07 08:31:32;;;;;;;9.60;7.00;;;;;;;12.04;87.09;101769.74;1709005;84;21028;-75
2022/10/07 08:34:04;;;;;;;8.48;6.17;;;;;;;12.21;86.63;101762.80;1751360;81;21550;-74
2022/10/07 08:36:31;;;;;;;9.88;6.22;;;;;;;12.39;86.54;101760.69;1742079;81;21066;-76
2022/10/07 08:39:00;;;;;;;11.38;6.75;;;;;;;12.44;85.30;101755.73;1741948;81;21031;-76
2022/10/07 08:41:36;;;;;;;11.00;7.03;;;;;;;12.56;85.39;101758.52;1712138;81;21074;-77
2022/10/07 08:44:16;;;;;;;13.08;7.05;;;;;;;12.74;85.20;101761.15;1645382;84;21226;-77
2022/10/07 08:46:58;;;;;;;10.75;6.62;;;;;;;12.85;84.47;101746.41;1678864;82;21090;-76
2022/10/07 08:49:48;;;;;;;10.85;5.87;;;;;;;13.01;84.66;101750.84;1723426;82;21006;-76
2022/10/07 08:52:31;;;;;;;10.28;6.35;;;;;;;13.20;84.44;101744.66;1742960;81;21533;-77
2022/10/07 08:55:00;;;;;;;12.03;6.37;;;;;;;13.32;83.85;101743.89;1751406;81;21982;-77
2022/10/07 08:58:11;;;;;;;13.03;6.62;;;;;;;13.46;83.58;101738.25;1736199;81;21918;-76
2022/10/07 09:00:57;;;;;;;12.85;7.00;;;;;;;13.59;83.24;101730.42;1736495;81;21031;-76
2022/10/07 09:03:42;;;;;;;12.68;6.55;;;;;;;13.80;83.01;101728.95;1731741;81;21501;-77
2022/10/07 09:06:29;;;;;;;10.38;5.97;;;;;;;13.95;82.71;101717.54;1751960;81;21011;-76
2022/10/07 09:09:01;;;;;;;9.78;6.10;;;;;;;14.14;82.63;101717.84;1751660;81;21139;-76
2022/10/07 09:11:31;;;;;;;9.95;6.42;;;;;;;14.35;82.23;101713.20;1732163;81;21158;-76
2022/10/07 09:14:04;;;;;;;;;;;;;;;14.57;82.10;101708.13;1754074;81;21074;-76
2022/10/07 09:16:37;;;;;;;8.35;4.62;;;;;;;14.78;81.13;101710.52;1736177;81;20081;-77
2022/10/07 09:19:04;;;;;;;7.58;4.20;;;;;;;14.96;81.06;101703.73;1728146;81;21038;-76
2022/10/07 09:21:42;;;;;;;8.28;4.15;;;;;;;15.25;81.01;101701.41;1738476;81;21003;-75
2022/10/07 09:24:17;;;;;;;7.12;3.75;;;;;;;15.59;81.25;101700.17;1690255;81;21942;-77
2022/10/07 09:26:44;;;;;;;11.00;3.25;;;;;;;15.89;79.97;101693.36;1717485;82;21019;-76
2022/10/07 09:29:12;;;;;;;7.33;3.08;;;;;;;16.18;78.62;101686.45;1718164;82;21035;-77
2022/10/07 09:31:39;;;;;;;8.48;3.62;;;;;;;16.18;78.62;101686.45;1731465;82;21059;-75
2022/10/07 09:34:11;;;;;;;6.30;2.75;;;;;;;16.39;78.23;101678.12;1748483;82;20995;-77
2022/10/07 09:37:00;;;;;;;6.05;3.00;;;;;;;16.62;76.59;101673.19;1746581;82;21925;-77
2022/10/07 09:39:27;;;;;;;4.67;3.02;;;;;;;16.62;76.59;101673.19;1744946;82;21071;-77
2022/10/07 09:41:54;;;;;;;6.22;2.50;;;;;;;16.87;76.05;101671.71;1748758;82;21074;-78
2022/10/07 09:44:26;;;;;;;5.85;2.70;;;;;;;16.99;75.29;101669.02;1748704;82;21086;-77
2022/10/07 09:47:17;;;;;;;5.75;2.83;;;;;;;17.10;74.86;101661.46;1748478;82;22813;-76
2022/10/07 09:49:50;;;;;;;7.55;3.40;;;;;;;17.34;74.90;101662.12;1726813;82;21454;-77
2022/10/07 09:52:24;;;;;;;6.67;3.08;;;;;;;17.59;74.24;101653.91;1708576;82;21102;-76
2022/10/07 09:54:55;;;;;;;6.22;2.77;;;;;;;17.75;73.57;101650.56;1712264;82;21058;-77
2022/10/07 09:57:32;;;;;;;7.85;3.10;;;;;;;17.93;72.70;101648.84;1702736;82;21017;-77
2022/10/07 10:00:17;;;;;;;5.47;3.15;;;;;;;18.13;72.37;101637.29;1717070;82;21842;-76
2022/10/07 10:02:48;;;;;;;5.70;3.00;;;;;;;18.42;72.27;101639.81;1728491;81;21793;-77
2022/10/07 10:05:23;;;;;;;4.95;2.58;;;;;;;18.67;71.23;101632.78;1695197;81;21037;-77
2022/10/07 10:07:58;;;;;;;5.10;2.70;;;;;;;18.86;70.63;101629.59;1698404;81;21109;-76
2022/10/07 10:10:30;;;;;;;5.92;2.33;;;;;;;19.08;70.17;101622.69;1646531;84;21054;-77
2022/10/07 10:13:01;;;;;;;5.83;2.75;;;;;;;19.27;69.73;101625.70;1680360;81;21058;-77
2022/10/07 10:15:39;;;;;;;4.90;2.72;;;;;;;19.51;69.27;101616.83;1650381;84;21943;-78
2022/10/07 10:18:37;;;;;;;4.55;2.55;;;;;;;19.85;69.67;101621.18;1703620;82;21023;-76
2022/10/07 10:21:19;;;;;;;7.22;2.62;;;;;;;20.13;68.62;101615.61;1734575;81;21022;-78
2022/10/07 10:23:56;;;;;;;5.75;2.80;;;;;;;20.45;68.11;101607.05;1699320;81;21477;-77
2022/10/07 10:26:32;;;;;;;5.15;3.05;;;;;;;20.64;66.90;101606.36;1705278;82;21293;-77
2022/10/07 10:29:10;;;;;;;4.37;2.37;;;;;;;20.81;66.54;101604.48;1724147;82;21143;-78
2022/10/07 10:32:10;;;;;;;5.25;2.40;;;;;;;20.99;65.95;101598.04;1673297;84;21026;-77
2022/10/07 10:35:14;;;;;;;;;;;;;;;21.21;65.81;101588.72;1743841;81;21588;-77
2022/10/07 10:37:56;;;;;;;6.15;2.62;;;;;;;21.49;64.86;101583.84;1698442;81;20200;-78
2022/10/07 10:40:44;;;;;;;4.75;2.42;;;;;;;21.67;64.64;101593.34;1739724;81;21173;-78
2022/10/07 10:43:44;;;;;;;5.53;2.72;;;;;;;21.80;63.72;101584.89;1675972;82;21847;-77
2022/10/07 10:46:17;;;;;;;5.58;3.02;;;;;;;21.98;63.36;101581.50;1740270;81;20976;-77
2022/10/07 10:49:15;;;;;;;7.10;2.70;;;;;;;22.07;62.46;101576.52;1701921;82;20905;-76
2022/10/07 10:52:19;;;;;;;5.70;3.00;;;;;;;22.28;62.05;101577.75;1716155;81;20999;-76
2022/10/07 10:55:20;;;;;;;7.42;3.70;;;;;;;22.46;61.65;101570.31;1675218;82;21047;-76
2022/10/07 10:58:08;;;;;;;5.90;2.75;;;;;;;22.63;61.14;101564.66;1688530;82;21941;-78
2022/10/07 11:01:02;;;;;;;6.25;2.87;;;;;;;22.73;60.50;101558.69;1691614;82;21044;-80
2022/10/07 11:04:04;;;;;;;7.75;3.62;;;;;;;22.93;60.08;101553.63;1682734;82;21069;-81
2022/10/07 11:06:35;;;;;;;5.03;2.47;;;;;;;23.07;59.75;101537.98;1656530;86;21513;-77
2022/10/07 11:09:04;;;;;;;4.60;2.87;;;;;;;23.16;58.58;101534.63;1651480;85;21548;-73
2022/10/07 11:11:34;;;;;;;4.22;2.62;;;;;;;23.26;57.85;101535.33;1639529;85;21131;-72
2022/10/07 11:14:06;;;;;;;6.05;2.72;;;;;;;23.20;57.14;101523.73;1669231;84;21101;-72
2022/10/07 11:16:44;;;;;;;5.10;2.90;;;;;;;23.27;57.27;101518.30;1637706;85;21086;-74
2022/10/07 11:19:17;;;;;;;5.47;2.87;;;;;;;23.37;56.76;101508.64;1668180;84;21137;-71
2022/10/07 11:21:49;;;;;;;5.95;2.92;;;;;;;23.35;56.19;101509.23;1637060;85;21023;-72
2022/10/07 11:24:25;;;;;;;5.45;2.75;;;;;;;23.44;55.90;101500.52;1637865;85;22193;-75
2022/10/07 11:26:57;;;;;;;4.53;2.50;;;;;;;23.68;55.96;101495.66;1667229;84;20994;-71
2022/10/07 11:29:55;;;;;;;5.30;3.00;;;;;;;23.83;55.29;101487.83;1638268;85;21583;-72
2022/10/07 11:32:30;;;;;;;5.10;2.70;;;;;;;23.95;55.02;101484.73;1667423;84;21074;-72
2022/10/07 11:35:34;;;;;;;4.70;2.45;;;;;;;24.09;54.45;101475.14;1649569;84;21059;-75
2022/10/07 11:38:12;;;;;;;4.97;2.40;;;;;;;24.10;53.74;101469.30;1637311;85;21529;-71
2022/10/07 11:40:56;;;;;;;4.47;2.33;;;;;;;24.25;53.26;101470.80;1700202;82;21551;-75
2022/10/07 11:43:47;;;;;;;7.05;2.60;;;;;;;24.27;52.20;101460.30;1732399;81;21059;-71
2022/10/07 11:46:43;;;;;;;4.10;2.20;;;;;;;24.17;52.02;101455.31;1733862;81;21094;-72
2022/10/07 11:49:17;;;;;;;5.78;2.37;;;;;;;24.27;51.34;101454.09;1735535;81;21085;-72
2022/10/07 11:52:10;;;;;;;4.22;2.15;;;;;;;24.24;50.95;101445.81;1736045;81;21139;-71
2022/10/07 11:54:49;;;;;;;3.50;2.10;;;;;;;24.26;51.07;101437.17;1734277;81;21486;-72
2022/10/07 11:57:23;;;;;;;5.62;2.10;;;;;;;24.24;50.38;101431.08;1735587;81;21054;-72
2022/10/07 12:00:11;;;;;;;4.83;2.35;;;;;;;24.22;50.73;101429.48;1735186;81;22387;-71